Time;durP1;ratioP1;P1;durP2;ratioP2;P2;SDS_P1;SDS_P2;PMS_P1;PMS_P2;Temp;Humidity;BMP_temperature;BMP_pressure;BME280_temperature;BME280_humidity;BME280_pressure;Samples;Min_cycle;Max_cycle;Signal;HPM_P1;HPM_P2
2022/08/21 00:06:14;;;;;;;1.73;0.80;;;;;;;;;;21075930;28;20291;-82
2022/08/21 00:16:15;;;;;;;2.88;1.60;;;;;;;;;;21072726;28;20300;-82
2022/08/21 00:26:17;;;;;;;1.92;1.13;;;25.60;90.40;;;;;;21079168;28;20215;-82
2022/08/21 00:36:19;;;;;;;2.63;1.00;;;;;;;;;;21071542;28;20241;-83
2022/08/21 00:46:20;;;;;;;2.00;1.20;;;24.00;88.40;;;;;;21059259;28;20358;-83
2022/08/21 00:56:23;;;;;;;1.85;0.98;;;;;;;;;;20953627;28;20270;-84
2022/08/21 01:06:25;;;;;;;0.80;0.63;;;;;;;;;;20982878;28;20225;-82
2022/08/21 01:16:27;;;;;;;2.42;1.13;;;;;;;;;;20984844;28;20643;-83
2022/08/21 01:26:34;;;;;;;2.85;0.80;;;;;;;;;;20951603;28;20293;-83
2022/08/21 01:36:36;;;;;;;1.58;0.80;;;;;;;;;;21000575;28;20612;-83
2022/08/21 01:46:39;;;;;;;1.40;0.68;;;;;;;;;;21028161;28;20246;-84
2022/08/21 01:56:42;;;;;;;2.33;0.95;;;;;;;;;;20967059;28;20224;-81
2022/08/21 02:06:43;;;;;;;1.52;0.88;;;;;;;;;;20998270;28;20696;-81
2022/08/21 02:16:46;;;;;;;1.50;0.70;;;23.00;91.60;;;;;;20966661;28;20714;-84
2022/08/21 02:26:47;;;;;;;2.28;1.00;;;;;;;;;;20970942;28;20275;-84
2022/08/21 02:36:49;;;;;;;1.67;0.80;;;;;;;;;;20968677;28;20211;-83
2022/08/21 02:46:51;;;;;;;1.98;0.90;;;;;;;;;;21059796;28;20262;-84
2022/08/21 02:56:53;;;;;;;1.77;0.77;;;;;;;;;;20971445;28;20247;-83
2022/08/21 03:06:55;;;;;;;1.05;0.60;;;;;;;;;;21007244;28;20253;-83
2022/08/21 03:16:57;;;;;;;1.30;0.70;;;;;;;;;;20912337;28;20229;-82
2022/08/21 03:27:02;;;;;;;2.17;0.93;;;;;;;;;;20910454;28;20549;-84
2022/08/21 03:37:04;;;;;;;3.22;1.02;;;;;;;;;;20908522;28;20222;-84
2022/08/21 03:47:06;;;;;;;1.70;0.88;;;;;;;;;;20891136;28;20222;-85
2022/08/21 03:57:10;;;;;;;2.13;0.90;;;;;;;;;;20907582;28;20218;-82
2022/08/21 04:07:12;;;;;;;2.00;0.80;;;;;;;;;;20872955;28;20229;-81
2022/08/21 04:17:13;;;;;;;1.00;0.75;;;;;;;;;;20890038;28;20298;-85
2022/08/21 04:27:15;;;;;;;2.30;1.10;;;;;;;;;;20906672;28;20218;-82
2022/08/21 04:37:17;;;;;;;1.40;0.90;;;;;;;;;;20887502;28;20297;-84
2022/08/21 04:47:19;;;;;;;2.10;0.80;;;;;;;;;;20907511;28;20700;-83
2022/08/21 04:57:20;;;;;;;1.58;0.85;;;;;;;;;;20889033;28;20223;-83
2022/08/21 05:07:26;;;;;;;1.48;0.70;;;;;;;;;;20904887;28;20280;-83
2022/08/21 05:17:29;;;;;;;1.40;0.80;;;;;;;;;;20900374;28;20227;-83
2022/08/21 05:27:31;;;;;;;1.52;0.80;;;;;;;;;;20885042;28;20234;-83
2022/08/21 05:37:33;;;;;;;1.67;0.90;;;;;;;;;;20901340;28;20216;-82
2022/08/21 05:47:35;;;;;;;1.85;0.98;;;;;;;;;;20900038;28;20261;-83
2022/08/21 05:57:40;;;;;;;1.52;0.90;;;;;;;;;;20882478;28;20339;-83
2022/08/21 06:07:42;;;;;;;1.98;1.17;;;;;;;;;;20997410;28;20241;-82
2022/08/21 06:17:44;;;;;;;1.50;1.00;;;;;;;;;;20985070;28;20237;-82
2022/08/21 06:27:46;;;;;;;1.13;0.70;;;22.40;99.90;;;;;;21046842;28;20213;-83
2022/08/21 06:37:47;;;;;;;3.08;1.00;;;;;;;;;;21061265;28;20210;-81
2022/08/21 06:47:49;;;;;;;2.30;1.00;;;;;;;;;;21040717;28;20231;-83
2022/08/21 06:57:51;;;;;;;2.40;1.13;;;;;;;;;;21024718;28;20218;-83
2022/08/21 07:07:53;;;;;;;2.08;1.00;;;;;;;;;;20959681;28;20217;-84
2022/08/21 07:17:54;;;;;;;2.45;1.13;;;;;;;;;;20959488;28;20236;-84
2022/08/21 07:27:56;;;;;;;2.80;1.13;;;;;;;;;;20960319;28;20801;-83
2022/08/21 07:37:58;;;;;;;1.92;0.88;;;;;;;;;;20883749;28;20221;-83
2022/08/21 07:47:59;;;;;;;1.48;0.70;;;;;;;;;;20871204;28;20277;-83
2022/08/21 07:58:01;;;;;;;2.95;0.90;;;;;;;;;;20958832;28;20596;-82
2022/08/21 08:08:03;;;;;;;1.73;0.80;;;23.50;89.00;;;;;;20970268;28;20236;-84
2022/08/21 08:18:05;;;;;;;2.22;1.27;;;;;;;;;;20930655;28;20230;-83
2022/08/21 08:28:07;;;;;;;2.28;1.00;;;;;;;;;;20924424;28;20217;-84
2022/08/21 08:38:09;;;;;;;1.75;0.90;;;;;;;;;;20979207;28;20244;-84
2022/08/21 08:48:15;;;;;;;1.38;0.70;;;;;;;;;;20988011;28;20221;-87
2022/08/21 08:58:20;;;;;;;1.38;0.88;;;;;;;;;;20979819;28;20197;-83
2022/08/21 09:08:41;;;;;;;3.40;1.10;;;;;;;;;;20963148;28;20208;-85
2022/08/21 09:18:45;;;;;;;4.57;1.35;;;;;;;;;;20961782;28;20280;-84
2022/08/21 09:28:52;;;;;;;1.42;0.90;;;;;;;;;;20962017;28;20219;-84
2022/08/21 09:38:55;;;;;;;5.47;1.10;;;;;;;;;;20981539;22;20231;-72
2022/08/21 09:49:01;;;;;;;2.83;1.35;;;25.40;92.20;;;;;;20903344;28;20330;-72
2022/08/21 09:59:13;;;;;;;4.97;1.85;;;;;;;;;;20904442;28;20234;-76
2022/08/21 10:09:16;;;;;;;1.35;0.82;;;;;;;;;;20847207;28;20264;-77
2022/08/21 10:19:42;;;;;;;1.83;0.70;;;25.90;75.10;;;;;;20889718;28;20274;-76
2022/08/21 10:30:04;;;;;;;2.83;0.60;;;;;;;;;;20878841;28;20688;-76
2022/08/21 10:40:18;;;;;;;1.40;0.60;;;;;;;;;;20929907;28;20616;-76
2022/08/21 10:50:58;;;;;;;3.50;1.00;;;26.60;74.30;;;;;;20856155;28;20915;-75
2022/08/21 11:01:10;;;;;;;1.88;1.00;;;;;;;;;;20860905;28;20697;-72
2022/08/21 11:11:24;;;;;;;1.85;1.00;;;;;;;;;;20896055;28;20258;-73
2022/08/21 11:21:53;;;;;;;1.83;0.77;;;27.10;83.80;;;;;;20897175;28;20205;-72
2022/08/21 11:31:58;;;;;;;2.40;0.80;;;;;;;;;;20898326;28;20574;-73
2022/08/21 11:42:00;;;;;;;3.03;1.00;;;;;;;;;;20881369;28;20656;-73
2022/08/21 11:52:05;;;;;;;2.80;1.23;;;;;;;;;;20900833;28;20265;-73
2022/08/21 12:02:11;;;;;;;1.38;0.70;;;;;;;;;;20899057;28;20222;-76
2022/08/21 12:12:23;;;;;;;3.38;1.10;;;;;;;;;;20944343;28;20224;-70
2022/08/21 12:22:36;;;;;;;2.42;0.88;;;;;;;;;;20985547;28;20210;-70
2022/08/21 12:32:53;;;;;;;2.92;0.80;;;28.40;78.20;;;;;;20966736;28;20238;-78
2022/08/21 12:42:57;;;;;;;3.08;0.82;;;;;;;;;;20887215;28;20330;-75
2022/08/21 12:53:08;;;;;;;2.28;0.82;;;;;;;;;;20901119;28;20390;-75
2022/08/21 13:03:09;;;;;;;1.38;0.70;;;;;;;;;;20899757;28;20825;-77
2022/08/21 13:13:20;;;;;;;2.05;0.82;;;28.80;74.70;;;;;;20926549;28;20269;-76
2022/08/21 13:23:29;;;;;;;2.55;0.90;;;;;;;;;;20956673;28;20273;-76
2022/08/21 13:33:31;;;;;;;2.90;0.90;;;;;;;;;;20946007;28;20225;-76
2022/08/21 13:43:35;;;;;;;3.22;1.00;;;29.10;72.60;;;;;;20871047;28;20233;-76
2022/08/21 13:53:51;;;;;;;2.17;0.98;;;28.90;77.70;;;;;;20816468;28;20296;-76
2022/08/21 14:04:00;;;;;;;2.08;0.90;;;;;;;;;;20818973;28;20218;-76
2022/08/21 14:14:08;;;;;;;2.38;0.65;;;;;;;;;;20823359;28;20627;-75
2022/08/21 14:24:12;;;;;;;1.73;0.80;;;;;;;;;;20822196;28;20291;-76
2022/08/21 14:34:16;;;;;;;2.45;1.08;;;;;;;;;;20848893;28;20225;-76
2022/08/21 14:44:19;;;;;;;1.00;0.60;;;;;;;;;;20962560;28;20759;-76
2022/08/21 14:54:20;;;;;;;1.20;0.80;;;;;;;;;;20957834;28;20283;-75
2022/08/21 15:04:23;;;;;;;1.75;0.85;;;;;;;;;;20982367;28;20212;-76
2022/08/21 15:14:30;;;;;;;6.35;1.67;;;29.00;77.70;;;;;;20980892;28;20284;-76
2022/08/21 15:24:32;;;;;;;1.10;0.70;;;;;;;;;;20958574;28;20224;-76
2022/08/21 15:34:33;;;;;;;1.23;0.65;;;;;;;;;;20956619;28;20723;-75
2022/08/21 15:44:35;;;;;;;3.13;0.80;;;;;;;;;;20956398;28;20232;-75
2022/08/21 15:54:37;;;;;;;2.22;0.90;;;;;;;;;;20975035;28;20220;-75
2022/08/21 16:04:39;;;;;;;1.98;0.88;;;;;;;;;;20940570;28;20267;-75
2022/08/21 16:14:41;;;;;;;1.17;0.57;;;;;;;;;;20880496;28;20267;-75
2022/08/21 16:24:43;;;;;;;1.58;0.80;;;;;;;;;;20877129;28;20271;-76
2022/08/21 16:34:46;;;;;;;1.67;0.70;;;;;;;;;;20891825;28;20213;-76
2022/08/21 16:44:48;;;;;;;2.58;0.80;;;;;;;;;;20893312;28;20217;-75
2022/08/21 16:54:50;;;;;;;2.00;1.10;;;;;;;;;;20890350;28;20216;-75
2022/08/21 17:04:52;;;;;;;1.88;0.90;;;;;;;;;;20849388;28;20224;-75
2022/08/21 17:14:54;;;;;;;1.65;0.95;;;;;;;;;;20806645;28;20220;-75
2022/08/21 17:24:57;;;;;;;2.10;0.68;;;;;;;;;;20897925;28;20281;-76
2022/08/21 17:34:58;;;;;;;1.75;0.63;;;;;;;;;;20971280;28;20224;-75
2022/08/21 17:45:00;;;;;;;2.42;0.70;;;;;;;;;;20978659;28;20228;-76
2022/08/21 17:55:04;;;;;;;1.33;0.65;;;;;;;;;;20983859;28;20389;-76
2022/08/21 18:05:07;;;;;;;3.40;1.08;;;;;;;;;;20985203;28;20198;-76
2022/08/21 18:15:12;;;;;;;2.45;0.73;;;27.10;82.20;;;;;;20838196;28;20591;-76
2022/08/21 18:25:17;;;;;;;1.40;0.70;;;;;;;;;;20817771;28;20703;-76
2022/08/21 18:35:19;;;;;;;1.58;0.80;;;;;;;;;;20830726;28;20645;-76
2022/08/21 18:45:27;;;;;;;1.92;0.80;;;26.70;77.30;;;;;;20963276;28;20692;-76
2022/08/21 18:55:29;;;;;;;1.65;0.88;;;;;;;;;;20921292;28;20277;-76
2022/08/21 19:05:30;;;;;;;1.95;0.85;;;;;;;;;;20970314;28;20229;-75
2022/08/21 19:15:34;;;;;;;3.28;0.85;;;;;;;;;;20981908;28;20215;-76
2022/08/21 19:25:36;;;;;;;3.70;1.20;;;;;;;;;;20979870;28;20256;-76
2022/08/21 19:35:38;;;;;;;1.65;0.90;;;;;;;;;;20976972;28;20216;-75
2022/08/21 19:45:40;;;;;;;3.67;0.98;;;;;;;;;;20967329;28;20219;-75
2022/08/21 19:55:43;;;;;;;1.65;0.77;;;;;;;;;;20946660;28;20706;-75
2022/08/21 20:05:45;;;;;;;1.92;0.80;;;;;;;;;;20951981;28;20232;-76
2022/08/21 20:15:48;;;;;;;1.27;0.80;;;26.10;89.70;;;;;;20976378;28;20212;-76
2022/08/21 20:25:50;;;;;;;1.60;0.85;;;;;;;;;;20885824;22;20477;-74
2022/08/21 20:35:52;;;;;;;2.30;0.95;;;;;;;;;;20864934;28;20265;-75
2022/08/21 20:45:54;;;;;;;2.75;0.90;;;;;;;;;;20825216;28;20213;-74
2022/08/21 20:55:59;;;;;;;3.20;0.90;;;25.60;84.40;;;;;;20834691;28;20228;-74
2022/08/21 21:06:04;;;;;;;2.55;0.82;;;;;;;;;;20936657;28;20226;-75
2022/08/21 21:16:17;;;;;;;4.03;1.02;;;25.60;85.10;;;;;;20909682;28;20213;-74
2022/08/21 21:26:41;;;;;;;2.10;0.90;;;;;;;;;;20891327;28;20255;-74
2022/08/21 21:36:55;;;;;;;2.92;0.80;;;25.50;85.40;;;;;;20891694;28;20600;-74
2022/08/21 21:46:59;;;;;;;1.42;0.80;;;;;;;;;;20824510;28;20235;-74
2022/08/21 21:57:29;;;;;;;2.60;1.35;;;25.20;78.50;;;;;;20825481;28;20574;-74
2022/08/21 22:07:31;;;;;;;1.38;0.70;;;;;;;;;;20832094;28;20275;-74
2022/08/21 22:17:33;;;;;;;1.73;1.00;;;;;;;;;;20971273;28;20211;-74
2022/08/21 22:27:38;;;;;;;2.33;0.90;;;;;;;;;;20989443;28;20242;-74
2022/08/21 22:37:56;;;;;;;2.25;0.85;;;24.50;92.90;;;;;;20972189;28;20201;-74
2022/08/21 22:48:06;;;;;;;2.03;0.88;;;;;;;;;;20971169;28;20251;-74
2022/08/21 22:58:17;;;;;;;1.88;0.88;;;;;;;;;;20987214;28;20208;-74
2022/08/21 23:08:37;;;;;;;1.80;0.77;;;;;;;;;;20986388;28;20223;-74
2022/08/21 23:19:14;;;;;;;0.75;0.50;;;;;;;;;;20968169;28;20207;-74
2022/08/21 23:29:37;;;;;;;1.60;0.73;;;24.30;80.80;;;;;;20959193;28;20257;-74
2022/08/21 23:39:42;;;;;;;1.98;0.93;;;;;;;;;;20984479;28;20293;-74
2022/08/21 23:50:03;;;;;;;2.42;0.77;;;24.20;86.40;;;;;;20983463;28;20569;-74
